Tropical Cyclones
[Index]
Main Index Home Page Stock Weather Photos Extreme Storms Discussion Storm News and Storm Chasing Reports Tropical Cyclones / Hurricanes / Typhoons Weather Data and Links Wild Fires / Bushfires Weather Observation Techniques Weather Picture Catalogue Tornado Pictures and Reports Stock Video Footage and DVDs for sale
Season 1994-1995 Tropical Cyclone BOBBY Track Map
Season 1994-1995 Summaries: [BoM-AU] [JTWC-AU] [JTWC-SIO] [JTWC-SPAC] [JTWC-SH]
<<- Previous TC | JTWC 1994-1995 Season | Next TC ->>

click for intensity scale information  Lat/long Grid: Show Hide

 Date Labels: Show Hide

Joint Typhoon Warning Centre Cyclone Data

Name: BOBBY

18 Feb 1995 00:00 UTC to 27 Feb 1995 12:00 UTC

    date/time    lat    long     hPa   cat  kts
1995-02-18 00   11.0   133.0                  15          
1995-02-18 06   11.2   132.1                  15          
1995-02-18 12   11.4   131.2                  15          
1995-02-18 18   11.7   130.2                  20          
1995-02-19 00   12.0   129.2                  20          
1995-02-19 06   12.2   128.2                  20          
1995-02-19 12   12.3   127.2                  20          
1995-02-19 18   12.5   126.2                  25          
1995-02-20 00   12.4   125.3                  25          
1995-02-20 06   12.5   124.4                  25          
1995-02-20 12   12.7   123.5                  25          
1995-02-20 18   13.2   122.6                  25          
1995-02-21 00   13.6   121.7                  25          
1995-02-21 06   14.1   120.9                  30          
1995-02-21 12   14.7   120.2                  35          
1995-02-21 18   15.4   119.7            1     40          
1995-02-22 00   16.3   119.3            1     45          
1995-02-22 06   16.9   118.6            1     50          
1995-02-22 12   17.5   117.9            2     55          
1995-02-22 18   18.0   117.3            2     60          
1995-02-23 00   18.5   116.6            2     65          
1995-02-23 06   19.0   116.1            2     70          
1995-02-23 12   19.4   115.8            3     75          
1995-02-23 18   19.8   115.7            3     80          
1995-02-24 00   20.3   115.7            3     90          
1995-02-24 06   20.8   115.7            4    100          
1995-02-24 12   21.3   115.5            4    110          
1995-02-24 18   21.7   115.3            4    100          
1995-02-25 00   22.1   115.2            3     90          
1995-02-25 06   22.7   115.2            3     80          
1995-02-25 12   23.5   115.2            2     70          
1995-02-25 18   24.4   115.4            2     60          
1995-02-26 00   25.3   115.8            2     55          
1995-02-26 06   26.3   116.4            1     50          
1995-02-26 12   27.2   117.5            1     45          
1995-02-26 18   28.0   119.0                  35          
1995-02-27 00   28.9   120.8                  20          
1995-02-27 06   29.7   122.8                  20          
1995-02-27 12   30.4   124.9                  20          
Winds are 1-min average.

Tropical cyclone tracks developed by Michael Bath using data from the Joint Typhoon Warning Centre Best Tracks and Google Maps.


[Australian Severe Weather index] [Copyright Notice] [Email Contacts] [Search This Site] [Privacy Policy]
Document: tropical_cyclone_bobby.htm Updated: 18 September 2016